Time;durP1;ratioP1;P1;durP2;ratioP2;P2;SDS_P1;SDS_P2;PMS_P1;PMS_P2;Temp;Humidity;BMP_temperature;BMP_pressure;BME280_temperature;BME280_humidity;BME280_pressure;Samples;Min_cycle;Max_cycle;Signal;HPM_P1;HPM_P2
2022/09/09 00:00:42;;;;;;;2.00;1.10;;;;;;;;;;5080638;28;20180;-77
2022/09/09 00:03:08;;;;;;;4.20;1.20;;;;;;;;;;5079328;28;20199;-76
2022/09/09 00:05:44;;;;;;;2.33;1.10;;;;;;;;;;5083633;28;20210;-76
2022/09/09 00:08:15;;;;;;;3.97;1.30;;;;;;;;;;5071447;28;20202;-76
2022/09/09 00:10:42;;;;;;;2.10;1.30;;;;;;;;;;5085931;28;20200;-76
2022/09/09 00:13:18;;;;;;;2.40;1.23;;;;;;;;;;5086935;28;20279;-76
2022/09/09 00:15:47;;;;;;;4.20;1.50;;;;;;;;;;5088471;28;20184;-77
2022/09/09 00:18:25;;;;;;;2.53;1.40;;;;;;;;;;5079971;28;20277;-77
2022/09/09 00:21:07;;;;;;;3.23;1.20;;;;;;;;;;5096248;28;20191;-76
2022/09/09 00:23:36;;;;;;;1.83;1.40;;;;;;;;;;5053362;28;20192;-76
2022/09/09 00:26:21;;;;;;;3.47;1.23;;;;;;;;;;5053889;28;20219;-76
2022/09/09 00:28:55;;;;;;;2.27;1.30;;;;;;;;;;5067469;28;20197;-77
2022/09/09 00:31:25;;;;;;;2.40;1.37;;;;;;;;;;5052620;28;20176;-76
2022/09/09 00:33:53;;;;;;;4.10;1.43;;;;;;;;;;5060433;28;20212;-76
2022/09/09 00:36:22;;;;;;;2.10;1.50;;;;;;;;;;5083115;28;20176;-77
2022/09/09 00:38:51;;;;;;;4.43;1.57;;;;;;;;;;5063859;28;20215;-76
2022/09/09 00:41:21;;;;;;;3.17;1.40;;;;;;;;;;5095121;28;20175;-76
2022/09/09 00:43:58;;;;;;;4.03;1.40;;;;;;;;;;5089971;28;20177;-77
2022/09/09 00:46:44;;;;;;;2.87;1.50;;;;;;;;;;5081600;28;20192;-76
2022/09/09 00:49:30;;;;;;;1.93;1.20;;;;;;;;;;5085003;28;20204;-77
2022/09/09 00:52:16;;;;;;;1.70;1.30;;;;;;;;;;5088013;28;20230;-76
2022/09/09 00:54:51;;;;;;;2.53;1.40;;;;;;;;;;5092735;28;20211;-77
2022/09/09 00:57:17;;;;;;;2.30;1.30;;;;;;;;;;5088490;28;20186;-77
2022/09/09 00:59:47;;;;;;;2.63;1.20;;;;;;;;;;5085865;28;20214;-76
2022/09/09 01:02:22;;;;;;;4.13;1.20;;;;;;;;;;5064282;28;20203;-77
2022/09/09 01:04:48;;;;;;;3.03;1.30;;;;;;;;;;5069416;28;20176;-76
2022/09/09 01:07:17;;;;;;;3.20;1.40;;;;;;;;;;5075001;28;20180;-77
2022/09/09 01:10:01;;;;;;;2.20;1.30;;;;;;;;;;5085499;28;20211;-76
2022/09/09 01:12:33;;;;;;;2.90;1.30;;;;;;;;;;5063651;28;20184;-77
2022/09/09 01:15:08;;;;;;;2.60;1.30;;;;;;;;;;5087500;28;20216;-76
2022/09/09 01:17:45;;;;;;;3.57;1.37;;;;;;;;;;5068481;28;20237;-76
2022/09/09 01:20:17;;;;;;;3.23;1.50;;;;;;;;;;5085498;28;20180;-76
2022/09/09 01:23:08;;;;;;;3.73;1.60;;;;;;;;;;5067568;28;20694;-76
2022/09/09 01:25:44;;;;;;;3.00;1.30;;;;;;;;;;5058409;28;20180;-76
2022/09/09 01:28:21;;;;;;;4.13;1.57;;;;;;;;;;5067567;28;20232;-76
2022/09/09 01:30:49;;;;;;;3.47;1.47;;;;;;;;;;5070327;28;20176;-76
2022/09/09 01:33:19;;;;;;;2.70;1.40;;;;;;;;;;5059821;28;20204;-76
2022/09/09 01:35:50;;;;;;;2.07;1.43;;;;;;;;;;5051875;28;20176;-77
2022/09/09 01:38:17;;;;;;;2.90;1.33;;;;;;;;;;5070542;28;20767;-76
2022/09/09 01:40:44;;;;;;;2.80;1.40;;;;;;;;;;5065535;28;20547;-76
2022/09/09 01:43:11;;;;;;;3.80;1.60;;;;;;;;;;5064985;28;20297;-76
2022/09/09 01:45:37;;;;;;;4.47;1.60;;;;;;;;;;5067843;28;20202;-77
2022/09/09 01:48:04;;;;;;;3.23;1.60;;;;;;;;;;5066389;28;20212;-77
2022/09/09 01:50:56;;;;;;;3.80;1.50;;;;;;;;;;5080680;28;20684;-76
2022/09/09 01:53:23;;;;;;;3.90;1.50;;;;;;;;;;5090011;28;20206;-76
2022/09/09 01:55:57;;;;;;;3.70;1.37;;;;;;;;;;5077030;28;20188;-77
2022/09/09 01:59:06;;;;;;;3.83;1.47;;;;;;;;;;5090080;28;20200;-76
2022/09/09 02:01:41;;;;;;;3.47;1.53;;;;;;;;;;5020065;28;20213;-77
2022/09/09 02:04:30;;;;;;;3.07;1.47;;;;;;;;;;5031298;28;20344;-77
2022/09/09 02:06:57;;;;;;;4.73;1.50;;;;;;;;;;5050682;28;20203;-76
2022/09/09 02:09:30;;;;;;;4.57;1.60;;;;;;;;;;5062709;28;20315;-77
2022/09/09 02:12:00;;;;;;;3.50;1.40;;;;;;;;;;5065204;28;20666;-76
2022/09/09 02:14:39;;;;;;;3.40;1.57;;;;;;;;;;5066533;28;20216;-76
2022/09/09 02:17:10;;;;;;;4.07;1.47;;;;;;;;;;5066740;28;20204;-76
2022/09/09 02:19:56;;;;;;;3.67;1.73;;;;;;;;;;5078903;28;20540;-77
2022/09/09 02:22:34;;;;;;;4.30;1.70;;;;;;;;;;5055757;28;20181;-77
2022/09/09 02:25:01;;;;;;;2.20;1.40;;;;;;;;;;5073883;28;20192;-77
2022/09/09 02:27:30;;;;;;;2.13;1.60;;;;;;;;;;5072167;28;20186;-77
2022/09/09 02:29:57;;;;;;;2.83;1.40;;;;;;;;;;5077833;28;20175;-77
2022/09/09 02:32:36;;;;;;;3.47;1.50;;;;;;;;;;5064641;28;20189;-76
2022/09/09 02:35:07;;;;;;;6.17;1.70;;;;;;;;;;5068094;28;20582;-77
2022/09/09 02:37:36;;;;;;;2.50;1.53;;;;;;;;;;5076014;28;20256;-77
2022/09/09 02:40:04;;;;;;;4.23;1.50;;;;;;;;;;5070251;28;20181;-77
2022/09/09 02:42:32;;;;;;;4.33;1.67;;;;;;;;;;5072816;28;20176;-76
2022/09/09 02:45:00;;;;;;;4.33;1.67;;;;;;;;;;5074474;28;20187;-76
2022/09/09 02:47:36;;;;;;;4.03;1.70;;;;;;;;;;5064105;28;20687;-76
2022/09/09 02:50:12;;;;;;;3.57;1.60;;;;;;;;;;5065898;28;20247;-76
2022/09/09 02:52:44;;;;;;;2.77;1.63;;;;;;;;;;5046737;28;20199;-76
2022/09/09 02:55:14;;;;;;;3.77;2.03;;;;;;;;;;5065155;28;20216;-77
2022/09/09 02:57:41;;;;;;;3.77;1.67;;;;;;;;;;5076150;28;20734;-76
2022/09/09 03:00:07;;;;;;;4.30;1.63;;;;;;;;;;5064794;28;20184;-76
2022/09/09 03:02:34;;;;;;;3.20;1.73;;;;;;;;;;5069135;28;20242;-76
2022/09/09 03:05:06;;;;;;;4.40;1.70;;;;;;;;;;5074959;28;20204;-76
2022/09/09 03:07:32;;;;;;;3.50;1.80;;;;;;;;;;5079607;28;20192;-76
2022/09/09 03:09:58;;;;;;;3.20;1.70;;;;;;;;;;5050389;28;20184;-76
2022/09/09 03:12:26;;;;;;;3.93;1.90;;;;;;;;;;5057258;28;20854;-77
2022/09/09 03:14:52;;;;;;;4.57;1.70;;;;;;;;;;5060512;28;20204;-77
2022/09/09 03:17:18;;;;;;;3.03;1.60;;;;;;;;;;5086556;28;20264;-77
2022/09/09 03:19:52;;;;;;;2.73;1.53;;;;;;;;;;5076528;28;20184;-77
2022/09/09 03:22:18;;;;;;;3.07;1.70;;;;;;;;;;5064317;28;20204;-76
2022/09/09 03:24:46;;;;;;;4.07;1.57;;;;;;;;;;5067384;28;20176;-77
2022/09/09 03:27:14;;;;;;;2.90;1.50;;;;;;;;;;5066959;28;20188;-77
2022/09/09 03:29:40;;;;;;;4.37;1.77;;;;;;;;;;5063494;28;20218;-76
2022/09/09 03:32:12;;;;;;;3.40;1.43;;;;;;;;;;5051896;28;20759;-77
2022/09/09 03:34:40;;;;;;;2.73;1.30;;;;;;;;;;5067163;28;20289;-76
2022/09/09 03:37:07;;;;;;;3.17;1.60;;;;;;;;;;5052521;28;20185;-76
2022/09/09 03:39:33;;;;;;;3.33;1.57;;;;;;;;;;5035048;28;20711;-77
2022/09/09 03:42:03;;;;;;;3.30;1.40;;;;;;;;;;5064296;28;20187;-77
2022/09/09 03:44:30;;;;;;;4.50;1.63;;;;;;;;;;5085401;28;20184;-76
2022/09/09 03:46:59;;;;;;;4.40;1.57;;;;;;;;;;5063898;28;20189;-76
2022/09/09 03:49:27;;;;;;;2.63;1.43;;;;;;;;;;5072855;28;20212;-77
2022/09/09 03:51:54;;;;;;;2.17;1.40;;;;;;;;;;5056301;28;20212;-76
2022/09/09 03:54:21;;;;;;;2.83;1.50;;;;;;;;;;5073948;28;20207;-76
2022/09/09 03:56:47;;;;;;;3.60;1.43;;;;;;;;;;5071488;28;20211;-76
2022/09/09 03:59:14;;;;;;;2.83;1.50;;;;;;;;;;5072632;28;20201;-77
2022/09/09 04:01:41;;;;;;;2.60;1.50;;;;;;;;;;5074554;28;20222;-77
2022/09/09 04:04:08;;;;;;;4.63;1.50;;;;;;;;;;5064533;28;20260;-76
2022/09/09 04:06:35;;;;;;;2.93;1.43;;;;;;;;;;5055871;28;20244;-76
2022/09/09 04:09:03;;;;;;;3.37;1.40;;;;;;;;;;5073503;28;20235;-76
2022/09/09 04:11:30;;;;;;;3.50;1.60;;;;;;;;;;5076222;28;20835;-76
2022/09/09 04:13:58;;;;;;;3.20;1.60;;;;;;;;;;5068551;28;20201;-76
2022/09/09 04:16:24;;;;;;;3.20;1.40;;;;;;;;;;5066856;28;20257;-76
2022/09/09 04:18:52;;;;;;;3.63;1.57;;;;;;;;;;5083768;28;20195;-77
2022/09/09 04:21:19;;;;;;;5.63;1.60;;;;;;;;;;5070692;28;20260;-76
2022/09/09 04:23:45;;;;;;;2.70;1.57;;;;;;;;;;5055798;28;20225;-76
2022/09/09 04:26:11;;;;;;;2.43;1.30;;;;;;;;;;5076050;28;20195;-76
2022/09/09 04:28:38;;;;;;;3.00;1.43;;;;;;;;;;5084022;28;20204;-77
2022/09/09 04:31:15;;;;;;;2.33;1.30;;;;;;;;;;5063472;28;20871;-77
2022/09/09 04:33:41;;;;;;;4.00;1.30;;;;;;;;;;5080093;28;20281;-76
2022/09/09 04:36:08;;;;;;;3.47;1.20;;;;;;;;;;5068371;28;20181;-77
2022/09/09 04:38:35;;;;;;;3.43;1.20;;;;;;;;;;5079422;28;20242;-76
2022/09/09 04:41:01;;;;;;;4.20;1.37;;;;;;;;;;5054413;28;20187;-76
2022/09/09 04:43:28;;;;;;;2.27;1.20;;;;;;;;;;5076334;28;20654;-76
2022/09/09 04:45:54;;;;;;;4.87;1.33;;;;;;;;;;5090150;28;20180;-77
2022/09/09 04:48:25;;;;;;;4.53;1.33;;;;;;;;;;5082365;28;20199;-78
2022/09/09 04:51:11;;;;;;;2.43;1.00;;;;;;;;;;5072774;28;20180;-79
2022/09/09 04:53:37;;;;;;;3.00;1.10;;;;;;;;;;5075389;28;20312;-75
2022/09/09 04:56:04;;;;;;;3.13;1.30;;;;;;;;;;5075519;28;20177;-75
2022/09/09 04:58:33;;;;;;;2.23;1.20;;;;;;;;;;5057439;28;20230;-76
2022/09/09 05:01:07;;;;;;;2.53;1.13;;;;;;;;;;5092261;28;20177;-75
2022/09/09 05:03:33;;;;;;;2.77;1.20;;;;;;;;;;5060943;28;20203;-76
2022/09/09 05:06:20;;;;;;;2.13;1.10;;;;;;;;;;5076342;28;20223;-75
2022/09/09 05:08:49;;;;;;;3.47;1.20;;;;;;;;;;5063515;28;20558;-75
2022/09/09 05:11:19;;;;;;;3.47;1.23;;;;;;;;;;5049547;28;20283;-75
2022/09/09 05:13:46;;;;;;;1.93;1.10;;;;;;;;;;5068549;28;20837;-74
2022/09/09 05:16:13;;;;;;;2.67;0.97;;;;;;;;;;5068395;28;20271;-74
2022/09/09 05:18:40;;;;;;;2.43;1.07;;;;;;;;;;5064702;28;20193;-74
2022/09/09 05:21:07;;;;;;;3.07;1.03;;;;;;;;;;5071608;28;20208;-77
2022/09/09 05:23:34;;;;;;;1.40;0.90;;;;;;;;;;5070160;28;20325;-77
2022/09/09 05:26:00;;;;;;;1.20;1.10;;;;;;;;;;5067380;28;20701;-76
2022/09/09 05:28:29;;;;;;;3.13;1.10;;;;;;;;;;5067521;28;20208;-77
2022/09/09 05:30:57;;;;;;;1.97;1.10;;;;;;;;;;5083320;28;20180;-77
2022/09/09 05:33:23;;;;;;;3.23;1.20;;;;;;;;;;5053718;28;20577;-77
2022/09/09 05:35:56;;;;;;;4.63;1.33;;;;;;;;;;5063085;28;20687;-77
2022/09/09 05:38:24;;;;;;;1.83;1.07;;;;;;;;;;5048855;28;20223;-77
2022/09/09 05:40:52;;;;;;;3.97;1.10;;;;;;;;;;5085893;28;20635;-77
2022/09/09 05:43:21;;;;;;;1.73;1.03;;;;;;;;;;5055745;28;20203;-77
2022/09/09 05:45:48;;;;;;;2.17;1.20;;;;;;;;;;5087261;28;20173;-77
2022/09/09 05:48:15;;;;;;;2.13;1.10;;;;;;;;;;5068958;28;20576;-77
2022/09/09 05:50:42;;;;;;;1.80;1.20;;;;;;;;;;5079275;28;20168;-77
2022/09/09 05:53:10;;;;;;;3.53;1.20;;;;;;;;;;5063382;28;20169;-77
2022/09/09 05:55:36;;;;;;;3.13;1.17;;;;;;;;;;5074951;28;20185;-77
2022/09/09 05:58:04;;;;;;;2.93;1.13;;;;;;;;;;5066319;28;20680;-77
2022/09/09 06:00:31;;;;;;;3.63;1.30;;;;;;;;;;5098936;28;20172;-77
2022/09/09 06:02:58;;;;;;;2.53;1.20;;;;;;;;;;5050021;28;20180;-77
2022/09/09 06:05:28;;;;;;;2.63;1.10;;;;;;;;;;5051574;28;20229;-77
2022/09/09 06:07:55;;;;;;;1.97;1.10;;;;;;;;;;5069557;28;20196;-77
2022/09/09 06:10:22;;;;;;;2.13;1.10;;;;;;;;;;5075380;28;20190;-77
2022/09/09 06:12:48;;;;;;;2.17;1.27;;;;;;;;;;5070829;28;20177;-77
2022/09/09 06:15:14;;;;;;;4.30;1.20;;;;;;;;;;5096897;28;20204;-77
2022/09/09 06:17:41;;;;;;;2.90;1.20;;;;;;;;;;5072094;28;20177;-77
2022/09/09 06:20:09;;;;;;;1.53;1.30;;;;;;;;;;5053767;28;20181;-77
2022/09/09 06:22:35;;;;;;;2.80;1.10;;;;;;;;;;5078041;28;20734;-77
2022/09/09 06:25:01;;;;;;;3.73;1.30;;;;;;;;;;5073941;28;20194;-77
2022/09/09 06:27:28;;;;;;;3.00;1.10;;;;;;;;;;5057530;28;20193;-77
2022/09/09 06:29:54;;;;;;;2.23;1.07;;;;;;;;;;5078449;28;20176;-77
2022/09/09 06:32:21;;;;;;;3.40;1.13;;;;;;;;;;5059419;28;20184;-77
2022/09/09 06:34:49;;;;;;;2.87;1.10;;;;;;;;;;5067692;28;20201;-77
2022/09/09 06:37:15;;;;;;;1.77;1.07;;;;;;;;;;5062952;28;20531;-77
2022/09/09 06:39:48;;;;;;;4.90;1.10;;;;;;;;;;5059484;28;20183;-77
2022/09/09 06:42:15;;;;;;;3.70;1.33;;;;;;;;;;5086984;28;20668;-77
2022/09/09 06:44:57;;;;;;;4.33;1.20;;;;;;;;;;5097552;28;20210;-77
2022/09/09 06:47:34;;;;;;;2.60;1.20;;;;;;;;;;5081492;28;20658;-77
2022/09/09 06:50:00;;;;;;;2.93;1.20;;;;;;;;;;5068296;28;20509;-77
2022/09/09 06:52:26;;;;;;;2.60;1.37;;;;;;;;;;5068891;28;20656;-77
2022/09/09 06:54:53;;;;;;;3.13;0.90;;;;;;;;;;5066666;28;20195;-77
2022/09/09 06:57:20;;;;;;;3.63;1.20;;;;;;;;;;5085820;28;20671;-77
2022/09/09 06:59:46;;;;;;;3.13;1.20;;;;;;;;;;5070559;28;20254;-78
2022/09/09 07:02:12;;;;;;;2.40;1.20;;;;;;;;;;5048879;28;20544;-77
2022/09/09 07:04:38;;;;;;;1.97;1.30;;;;;;;;;;5058543;28;20169;-77
2022/09/09 07:07:04;;;;;;;2.00;1.00;;;;;;;;;;5045494;28;20197;-78
2022/09/09 07:09:31;;;;;;;5.43;1.10;;;;;;;;;;5060530;28;20196;-77
2022/09/09 07:11:59;;;;;;;3.93;1.30;;;;;;;;;;5066743;28;20173;-78
2022/09/09 07:14:26;;;;;;;2.53;1.20;;;;;;;;;;5057482;28;20264;-77
2022/09/09 07:16:57;;;;;;;2.33;1.20;;;;;;;;;;5067986;28;20827;-78
2022/09/09 07:19:23;;;;;;;3.83;1.33;;;;;;;;;;5066024;28;20200;-78
2022/09/09 07:21:53;;;;;;;4.50;1.27;;;;;;;;;;5070920;28;20224;-77
2022/09/09 07:24:21;;;;;;;2.90;1.40;;;;;;;;;;5073774;28;20646;-77
2022/09/09 07:26:49;;;;;;;2.27;1.20;;;;;;;;;;5055548;28;20876;-78
2022/09/09 07:29:15;;;;;;;2.90;1.13;;;;;;;;;;5059221;28;20203;-77
2022/09/09 07:31:42;;;;;;;3.40;1.10;;;;;;;;;;5071202;28;20184;-78
2022/09/09 07:34:12;;;;;;;3.80;1.50;;;;;;;;;;5067054;28;20801;-78
2022/09/09 07:36:41;;;;;;;1.20;1.03;;;;;;;;;;5056070;28;20177;-78
2022/09/09 07:39:10;;;;;;;4.87;1.47;;;;;;;;;;5074862;28;20428;-78
2022/09/09 07:41:38;;;;;;;3.80;1.47;;;;;;;;;;5071585;28;20176;-77
2022/09/09 07:44:09;;;;;;;4.77;1.40;;;;;;;;;;5055195;28;20196;-77
2022/09/09 07:46:36;;;;;;;3.73;1.43;;;;;;;;;;5070983;28;20189;-78
2022/09/09 07:49:02;;;;;;;3.30;1.60;;;;;;;;;;5059350;28;20235;-77
2022/09/09 07:51:33;;;;;;;5.37;1.50;;;;;;;;;;5069467;28;20189;-77
2022/09/09 07:54:01;;;;;;;4.70;1.40;;;;;;;;;;5074940;28;20586;-77
2022/09/09 07:56:29;;;;;;;3.20;1.40;;;;;;;;;;5049517;28;20189;-77
2022/09/09 07:58:56;;;;;;;6.90;1.67;;;;;;;;;;5076295;28;20264;-77
2022/09/09 08:01:24;;;;;;;3.93;1.40;;;;;;;;;;5068628;28;20630;-78
2022/09/09 08:03:59;;;;;;;3.27;1.40;;;;;;;;;;5054872;28;20188;-81
2022/09/09 08:06:26;;;;;;;5.03;1.53;;;;;;;;;;5075049;28;20188;-81
2022/09/09 08:08:54;;;;;;;4.07;1.40;;;;;;;;;;5088635;28;20696;-78
2022/09/09 08:11:22;;;;;;;5.23;1.40;;;;;;;;;;5068825;28;20984;-82
2022/09/09 08:13:49;;;;;;;2.93;1.10;;;;;;;;;;5054703;28;20278;-76
2022/09/09 08:16:23;;;;;;;4.33;1.57;;;;;;;;;;5070287;28;20173;-76
2022/09/09 08:18:51;;;;;;;4.40;1.63;;;;;;;;;;5069731;28;20215;-76
2022/09/09 08:21:22;;;;;;;3.80;1.60;;;;;;;;;;5089958;28;20272;-77
2022/09/09 08:23:48;;;;;;;5.50;1.70;;;;;;;;;;5080939;28;20177;-77
2022/09/09 08:26:16;;;;;;;3.53;1.60;;;;;;;;;;5066932;28;20188;-76
2022/09/09 08:28:43;;;;;;;6.27;2.03;;;;;;;;;;5063262;28;20200;-76
2022/09/09 08:31:17;;;;;;;5.27;1.60;;;;;;;;;;5070329;28;20187;-76
2022/09/09 08:33:45;;;;;;;4.70;1.70;;;;;;;;;;5073068;28;20200;-77
2022/09/09 08:36:14;;;;;;;6.13;1.60;;;;;;;;;;5070888;28;20868;-76
2022/09/09 08:38:41;;;;;;;5.03;1.67;;;;;;;;;;5070289;28;20297;-76
2022/09/09 08:41:28;;;;;;;5.63;1.70;;;;;;;;;;5056110;28;20558;-77
2022/09/09 08:44:07;;;;;;;6.20;1.47;;;;;;;;;;5061734;28;20715;-76
2022/09/09 08:46:40;;;;;;;3.87;1.47;;;;;;;;;;5063560;28;20184;-77
2022/09/09 08:49:14;;;;;;;4.37;1.43;;;;;;;;;;5052204;28;20211;-77
2022/09/09 08:51:41;;;;;;;4.23;1.70;;;;;;;;;;5068419;28;20184;-78
2022/09/09 08:54:09;;;;;;;3.93;1.33;;;;;;;;;;5065394;28;20578;-78
2022/09/09 08:56:36;;;;;;;6.27;1.47;;;;;;;;;;5068522;28;20172;-76
2022/09/09 08:59:05;;;;;;;3.40;1.23;;;;;;;;;;5086950;28;20200;-76
2022/09/09 09:01:40;;;;;;;3.93;1.37;;;;;;;;;;5068557;28;20683;-76
2022/09/09 09:04:22;;;;;;;5.30;1.70;;;;;;;;;;5052843;28;20204;-77
2022/09/09 09:07:09;;;;;;;4.90;1.57;;;;;;;;;;5070222;28;20219;-76
2022/09/09 09:09:43;;;;;;;3.33;1.40;;;;;;;;;;5067045;28;20240;-78
2022/09/09 09:12:18;;;;;;;3.47;1.23;;;;;;;;;;5067868;28;20237;-79
2022/09/09 09:14:46;;;;;;;4.47;1.30;;;;;;;;;;5053393;28;20755;-79
2022/09/09 09:17:15;;;;;;;4.27;1.50;;;;;;;;;;5051141;28;20203;-79
2022/09/09 09:19:43;;;;;;;5.57;1.43;;;;;;;;;;5060437;28;20211;-77
2022/09/09 09:22:11;;;;;;;3.20;1.13;;;;;;;;;;5069186;28;20177;-77
2022/09/09 09:24:46;;;;;;;5.63;1.47;;;;;;;;;;5065030;28;20261;-77
2022/09/09 09:27:13;;;;;;;4.70;1.20;;;;;;;;;;5060083;28;20230;-77
2022/09/09 09:29:44;;;;;;;3.83;1.30;;;;;;;;;;5063524;28;20299;-77
2022/09/09 09:32:16;;;;;;;3.97;1.33;;;;;;;;;;5066500;28;20203;-83
2022/09/09 09:34:48;;;;;;;5.10;1.30;;;;;;;;;;5059892;28;20711;-81
2022/09/09 09:37:19;;;;;;;5.40;1.57;;;;;;;;;;5055524;28;20208;-82
2022/09/09 09:39:46;;;;;;;4.27;1.30;;;;;;;;;;5061235;28;20278;-82
2022/09/09 09:42:14;;;;;;;5.30;1.50;;;;;;;;;;5067071;28;20234;-79
2022/09/09 09:44:42;;;;;;;5.20;1.53;;;;;;;;;;5069903;28;20576;-78
2022/09/09 09:47:15;;;;;;;2.43;1.23;;;;;;;;;;5098431;28;20359;-78
2022/09/09 09:49:52;;;;;;;6.30;1.50;;;;;;;;;;5062896;28;20339;-78
2022/09/09 09:52:21;;;;;;;4.67;1.50;;;;;;;;;;5079387;28;20192;-79
2022/09/09 09:54:48;;;;;;;3.63;1.47;;;;;;;;;;5078241;28;20915;-79
2022/09/09 09:57:16;;;;;;;3.87;1.43;;;;;;;;;;5065713;28;20229;-78
2022/09/09 09:59:44;;;;;;;6.27;1.40;;;;;;;;;;5066466;28;20223;-78
2022/09/09 10:02:24;;;;;;;3.17;1.30;;;;;;;;;;5068996;28;20180;-79
2022/09/09 10:05:05;;;;;;;5.13;1.60;;;;;;;;;;5069267;28;20266;-78
2022/09/09 10:07:34;;;;;;;7.27;1.97;;;;;;;;;;5069493;28;20183;-78
2022/09/09 10:10:01;;;;;;;4.23;1.40;;;;;;;;;;5092003;28;20274;-78
2022/09/09 10:12:33;;;;;;;6.57;1.50;;;;;;;;;;5085603;28;20231;-78
2022/09/09 10:15:06;;;;;;;2.33;1.17;;;;;;;;;;5066394;28;20212;-78
2022/09/09 10:17:35;;;;;;;3.70;1.40;;;;;;;;;;5085103;28;20188;-79
2022/09/09 10:20:10;;;;;;;3.73;1.57;;;;;;;;;;5079184;28;20190;-78
2022/09/09 10:22:39;;;;;;;5.03;1.50;;;;;;;;;;5073651;28;20828;-79
2022/09/09 10:25:18;;;;;;;4.87;1.50;;;;;;;;;;5074550;28;20217;-78
2022/09/09 10:27:56;;;;;;;2.90;1.07;;;;;;;;;;5080809;28;20204;-78
2022/09/09 10:30:40;;;;;;;4.80;1.17;;;;;;;;;;5080601;28;20183;-78
2022/09/09 10:33:06;;;;;;;2.47;1.27;;;;;;;;;;5081702;28;20582;-78
2022/09/09 10:35:45;;;;;;;2.03;1.00;;;;;;;;;;5063812;28;20191;-79
2022/09/09 10:38:11;;;;;;;3.50;1.10;;;;;;;;;;5064892;28;20243;-79
2022/09/09 10:40:37;;;;;;;4.07;1.50;;;;;;;;;;5071152;28;20586;-78
2022/09/09 10:43:19;;;;;;;2.67;1.07;;;;;;;;;;5087712;28;20259;-78
2022/09/09 10:45:50;;;;;;;2.57;1.10;;;;;;;;;;5079511;28;20187;-78
2022/09/09 10:48:30;;;;;;;3.40;1.10;;;;;;;;;;5086164;28;20675;-78
2022/09/09 10:51:15;;;;;;;2.73;1.03;;;;;;;;;;5057677;28;20175;-80
2022/09/09 10:53:48;;;;;;;2.33;1.20;;;;;;;;;;5070649;28;20219;-79
2022/09/09 10:56:16;;;;;;;3.50;1.27;;;;;;;;;;5067612;28;20180;-78
2022/09/09 10:58:47;;;;;;;4.17;1.40;;;;;;;;;;5092550;28;20199;-78
2022/09/09 11:01:33;;;;;;;4.67;1.60;;;;;;;;;;5080121;28;20189;-78
2022/09/09 11:04:10;;;;;;;3.20;1.60;;;;;;;;;;5046464;28;20762;-78
2022/09/09 11:06:42;;;;;;;2.90;1.40;;;;;;;;;;5063933;28;20184;-78
2022/09/09 11:09:14;;;;;;;2.97;1.23;;;;;;;;;;5080067;28;20204;-78
2022/09/09 11:11:45;;;;;;;2.97;1.57;;;;;;;;;;5067233;28;20172;-80
2022/09/09 11:14:30;;;;;;;3.17;1.33;;;;;;;;;;5037573;28;20943;-78
2022/09/09 11:17:09;;;;;;;4.73;1.50;;;;;;;;;;5080986;28;20229;-80
2022/09/09 11:19:38;;;;;;;4.57;1.70;;;;;;;;;;5074019;28;20195;-78
2022/09/09 11:22:17;;;;;;;3.13;1.50;;;;;;;;;;5071307;28;20249;-80
2022/09/09 11:25:05;;;;;;;3.33;1.50;;;;;;;;;;5082443;28;20192;-78
2022/09/09 11:27:43;;;;;;;2.87;1.10;;;;;;;;;;5069308;28;20295;-79
2022/09/09 11:30:20;;;;;;;7.53;1.40;;;;;;;;;;5094332;28;20183;-78
2022/09/09 11:32:55;;;;;;;3.57;1.30;;;;;;;;;;5087926;28;20184;-79
2022/09/09 11:35:21;;;;;;;4.90;1.47;;;;;;;;;;5082174;28;20214;-78
2022/09/09 11:38:05;;;;;;;3.80;1.30;;;;;;;;;;5070720;28;20207;-79
2022/09/09 11:40:32;;;;;;;2.43;1.10;;;;;;;;;;5090066;28;20183;-78
2022/09/09 11:43:13;;;;;;;3.00;1.20;;;;;;;;;;5087992;28;20620;-78
2022/09/09 11:45:40;;;;;;;2.87;1.20;;;;;;;;;;5092043;28;20232;-78
2022/09/09 11:48:24;;;;;;;5.17;1.33;;;;;;;;;;5102475;28;20208;-78
2022/09/09 11:50:58;;;;;;;3.60;1.30;;;;;;;;;;5101531;28;20635;-78
2022/09/09 11:53:24;;;;;;;3.20;1.33;;;;;;;;;;5088574;28;20263;-78
2022/09/09 11:56:03;;;;;;;3.60;1.43;;;;;;;;;;5073169;28;20190;-78
2022/09/09 11:58:32;;;;;;;2.37;1.10;;;;;;;;;;5098815;28;20224;-81
2022/09/09 12:00:58;;;;;;;3.63;1.40;;;;;;;;;;5071874;28;20188;-77
2022/09/09 12:03:44;;;;;;;3.27;1.20;;;;;;;;;;5080363;28;20184;-75
2022/09/09 12:06:11;;;;;;;2.77;1.23;;;;;;;;;;5085526;28;20188;-78
2022/09/09 12:08:40;;;;;;;3.00;1.10;;;;;;;;;;5061957;28;20254;-75
2022/09/09 12:11:06;;;;;;;3.83;1.20;;;;;;;;;;5089853;28;20675;-76
2022/09/09 12:13:33;;;;;;;4.20;1.20;;;;;;;;;;5092375;28;20208;-80
2022/09/09 12:16:05;;;;;;;5.07;1.40;;;;;;;;;;5082751;28;20181;-79
2022/09/09 12:18:39;;;;;;;7.10;1.47;;;;;;;;;;5074145;28;20272;-83
2022/09/09 12:21:05;;;;;;;3.20;1.30;;;;;;;;;;5073094;28;20207;-76
2022/09/09 12:23:37;;;;;;;5.73;1.30;;;;;;;;;;5087284;28;20182;-80
2022/09/09 12:26:22;;;;;;;4.33;1.20;;;;;;;;;;5072435;28;20192;-81
2022/09/09 12:28:54;;;;;;;3.03;1.17;;;;;;;;;;5084539;28;20235;-76
2022/09/09 12:31:21;;;;;;;6.37;1.40;;;;;;;;;;5090727;28;20196;-79
2022/09/09 12:33:48;;;;;;;4.33;1.20;;;;;;;;;;5066205;28;20291;-78
2022/09/09 12:36:19;;;;;;;4.67;1.43;;;;;;;;;;5062898;28;20190;-75
2022/09/09 12:38:45;;;;;;;3.63;1.33;;;;;;;;;;5077495;28;20248;-74
2022/09/09 12:41:28;;;;;;;5.80;1.40;;;;;;;;;;5079910;28;20636;-74
2022/09/09 12:44:08;;;;;;;4.33;1.10;;;;;;;;;;5077410;28;20195;-74
2022/09/09 12:46:40;;;;;;;3.57;1.00;;;;;;;;;;5082388;28;20192;-74
2022/09/09 12:49:21;;;;;;;3.27;0.70;;;;;;;;;;5078907;28;20544;-75
2022/09/09 12:51:47;;;;;;;2.93;0.87;;;;;;;;;;5082102;28;20181;-75
2022/09/09 12:54:15;;;;;;;1.97;0.80;;;;;;;;;;5059486;28;20779;-75
2022/09/09 12:56:45;;;;;;;2.10;0.80;;;;;;;;;;5085296;28;20181;-75
2022/09/09 12:59:23;;;;;;;1.57;0.90;;;;;;;;;;5066048;28;20260;-78
2022/09/09 13:01:56;;;;;;;2.27;0.90;;;;;;;;;;5066252;28;20192;-77
2022/09/09 13:04:22;;;;;;;3.73;0.93;;;;;;;;;;5048241;28;20188;-74
2022/09/09 13:06:49;;;;;;;1.47;0.87;;;;;;;;;;5061292;28;20185;-76
2022/09/09 13:09:15;;;;;;;4.33;1.30;;;;;;;;;;5085633;28;20204;-76
2022/09/09 13:11:42;;;;;;;3.77;0.90;;;;;;;;;;5063632;28;20192;-76
2022/09/09 13:14:27;;;;;;;3.00;1.20;;;;;;;;;;5082172;28;20284;-76
2022/09/09 13:16:57;;;;;;;2.70;1.20;;;;;;;;;;5097829;28;20168;-78
2022/09/09 13:19:27;;;;;;;2.23;0.97;;;;;;;;;;5089385;28;20211;-78
2022/09/09 13:21:54;;;;;;;2.50;1.00;;;;;;;;;;5088236;28;20176;-77
2022/09/09 13:24:30;;;;;;;2.50;1.00;;;;;;;;;;5073429;28;20214;-76
2022/09/09 13:26:58;;;;;;;1.97;0.97;;;;;;;;;;5059601;28;20236;-78
2022/09/09 13:29:24;;;;;;;4.00;1.20;;;;;;;;;;5087712;28;20204;-76
2022/09/09 13:31:55;;;;;;;1.70;1.07;;;;;;;;;;5085806;28;20674;-81
2022/09/09 13:34:29;;;;;;;5.17;1.60;;;;;;;;;;5092713;28;20604;-77
2022/09/09 13:40:54;;;;;;;7.13;1.80;;;;;;;;;;5086008;28;20215;-77
2022/09/09 13:43:22;;;;;;;3.07;1.50;;;;;;;;;;5048402;28;20173;-77
2022/09/09 13:45:59;;;;;;;3.77;1.40;;;;;;;;;;5081195;28;20173;-77
2022/09/09 13:48:26;;;;;;;4.50;1.63;;;;;;;;;;5087747;28;20210;-77
2022/09/09 13:51:15;;;;;;;5.53;1.70;;;;;;;;;;5103715;28;20216;-77
2022/09/09 13:53:42;;;;;;;6.03;1.90;;;;;;;;;;5070573;28;20660;-78
2022/09/09 13:56:08;;;;;;;4.97;1.40;;;;;;;;;;5096585;28;20178;-78
2022/09/09 13:58:34;;;;;;;5.23;1.60;;;;;;;;;;5108340;28;20251;-78
2022/09/09 14:01:00;;;;;;;3.00;1.40;;;;;;;;;;5099163;28;20259;-77
2022/09/09 14:03:27;;;;;;;3.10;1.30;;;;;;;;;;5080306;28;20764;-78
2022/09/09 14:05:54;;;;;;;2.40;1.00;;;;;;;;;;5071121;28;20677;-78
2022/09/09 14:08:24;;;;;;;3.83;1.47;;;;;;;;;;5074501;28;20776;-78
2022/09/09 14:10:51;;;;;;;3.13;1.30;;;;;;;;;;5071651;28;20231;-77
2022/09/09 14:13:18;;;;;;;3.23;1.33;;;;;;;;;;5091481;28;20184;-77
2022/09/09 14:15:44;;;;;;;2.87;1.10;;;;;;;;;;5080861;28;20200;-77
2022/09/09 14:18:13;;;;;;;2.30;1.00;;;;;;;;;;5082893;28;20226;-78
2022/09/09 14:20:39;;;;;;;2.57;1.10;;;;;;;;;;5055532;28;20180;-77
2022/09/09 14:23:05;;;;;;;2.67;1.17;;;;;;;;;;5077966;28;20251;-78
2022/09/09 14:25:31;;;;;;;3.43;1.03;;;;;;;;;;5062488;28;20203;-78
2022/09/09 14:27:58;;;;;;;1.63;0.97;;;;;;;;;;5091670;28;20208;-78
2022/09/09 14:30:24;;;;;;;2.10;0.93;;;;;;;;;;5068781;28;20832;-78
2022/09/09 14:32:50;;;;;;;1.50;0.90;;;;;;;;;;5093156;28;20571;-78
2022/09/09 14:35:18;;;;;;;2.50;1.30;;;;;;;;;;5080468;28;20298;-78
2022/09/09 14:37:44;;;;;;;1.90;1.07;;;;;;;;;;5070704;28;20178;-78
2022/09/09 14:40:11;;;;;;;1.57;0.90;;;;;;;;;;5069407;28;20207;-78
2022/09/09 14:42:37;;;;;;;2.10;1.13;;;;;;;;;;5077802;28;20189;-78
2022/09/09 14:45:03;;;;;;;3.37;1.17;;;;;;;;;;5092959;28;20186;-77
2022/09/09 14:47:30;;;;;;;2.53;0.93;;;;;;;;;;5081234;28;20260;-77
2022/09/09 14:49:56;;;;;;;1.97;1.00;;;;;;;;;;5064060;28;20180;-78
2022/09/09 14:52:23;;;;;;;1.07;0.90;;;;;;;;;;5092033;28;20259;-78
2022/09/09 14:54:49;;;;;;;2.17;1.23;;;;;;;;;;5069602;28;20290;-78
2022/09/09 14:57:15;;;;;;;1.43;0.87;;;;;;;;;;5053458;28;20189;-78
2022/09/09 14:59:41;;;;;;;3.60;1.10;;;;;;;;;;5078442;28;20205;-78
2022/09/09 15:02:09;;;;;;;1.17;0.80;;;;;;;;;;5072542;28;20258;-77
2022/09/09 15:04:35;;;;;;;1.70;0.90;;;;;;;;;;5043278;28;20195;-78
2022/09/09 15:07:01;;;;;;;0.80;0.60;;;;;;;;;;5054795;28;20165;-78